sensor_id;sensor_type;location;lat;lon;timestamp;P1;P2;P0
56688;PMS5003;42565;53.342;-1.534;2022-07-24T00:02:03;8;6;
56688;PMS5003;42565;53.342;-1.534;2022-07-24T00:04:30;6;6;
56688;PMS5003;42565;53.342;-1.534;2022-07-24T00:06:58;10;9;
56688;PMS5003;42565;53.342;-1.534;2022-07-24T00:09:26;8;7;
56688;PMS5003;42565;53.342;-1.534;2022-07-24T00:11:53;7;7;
56688;PMS5003;42565;53.342;-1.534;2022-07-24T00:14:21;9;7;
56688;PMS5003;42565;53.342;-1.534;2022-07-24T00:16:48;9;9;
56688;PMS5003;42565;53.342;-1.534;2022-07-24T00:19:16;9;7;
56688;PMS5003;42565;53.342;-1.534;2022-07-24T00:21:43;9;8;
56688;PMS5003;42565;53.342;-1.534;2022-07-24T00:24:11;7;7;
56688;PMS5003;42565;53.342;-1.534;2022-07-24T00:26:38;6;6;
56688;PMS5003;42565;53.342;-1.534;2022-07-24T00:29:06;9;9;
56688;PMS5003;42565;53.342;-1.534;2022-07-24T00:31:33;6;5;
56688;PMS5003;42565;53.342;-1.534;2022-07-24T00:34:01;9;9;
56688;PMS5003;42565;53.342;-1.534;2022-07-24T00:36:28;8;8;
56688;PMS5003;42565;53.342;-1.534;2022-07-24T00:38:56;7;7;
56688;PMS5003;42565;53.342;-1.534;2022-07-24T00:41:23;6;6;
56688;PMS5003;42565;53.342;-1.534;2022-07-24T00:44:06;7;7;
56688;PMS5003;42565;53.342;-1.534;2022-07-24T00:46:36;9;9;
56688;PMS5003;42565;53.342;-1.534;2022-07-24T00:49:05;7;7;
56688;PMS5003;42565;53.342;-1.534;2022-07-24T00:51:33;7;7;
56688;PMS5003;42565;53.342;-1.534;2022-07-24T00:54:02;8;8;
56688;PMS5003;42565;53.342;-1.534;2022-07-24T00:56:31;6;6;
56688;PMS5003;42565;53.342;-1.534;2022-07-24T00:58:59;6;6;
56688;PMS5003;42565;53.342;-1.534;2022-07-24T01:01:27;8;8;
56688;PMS5003;42565;53.342;-1.534;2022-07-24T01:03:54;7;6;
56688;PMS5003;42565;53.342;-1.534;2022-07-24T01:06:22;8;8;
56688;PMS5003;42565;53.342;-1.534;2022-07-24T01:08:49;6;5;
56688;PMS5003;42565;53.342;-1.534;2022-07-24T01:11:17;9;8;
56688;PMS5003;42565;53.342;-1.534;2022-07-24T01:13:45;8;7;
56688;PMS5003;42565;53.342;-1.534;2022-07-24T01:16:14;9;8;
56688;PMS5003;42565;53.342;-1.534;2022-07-24T01:18:42;6;6;
56688;PMS5003;42565;53.342;-1.534;2022-07-24T01:21:09;8;8;
56688;PMS5003;42565;53.342;-1.534;2022-07-24T01:23:36;7;7;
56688;PMS5003;42565;53.342;-1.534;2022-07-24T01:26:05;6;6;
56688;PMS5003;42565;53.342;-1.534;2022-07-24T01:28:33;7;6;
56688;PMS5003;42565;53.342;-1.534;2022-07-24T01:31:01;9;7;
56688;PMS5003;42565;53.342;-1.534;2022-07-24T01:33:28;7;7;
56688;PMS5003;42565;53.342;-1.534;2022-07-24T01:35:56;8;8;
56688;PMS5003;42565;53.342;-1.534;2022-07-24T01:38:23;7;7;
56688;PMS5003;42565;53.342;-1.534;2022-07-24T01:40:51;7;6;
56688;PMS5003;42565;53.342;-1.534;2022-07-24T01:43:18;7;7;
56688;PMS5003;42565;53.342;-1.534;2022-07-24T01:45:46;10;8;
56688;PMS5003;42565;53.342;-1.534;2022-07-24T01:48:13;10;9;
56688;PMS5003;42565;53.342;-1.534;2022-07-24T01:50:41;6;5;
56688;PMS5003;42565;53.342;-1.534;2022-07-24T01:53:08;9;7;
56688;PMS5003;42565;53.342;-1.534;2022-07-24T01:55:35;7;7;
56688;PMS5003;42565;53.342;-1.534;2022-07-24T01:58:02;7;7;
56688;PMS5003;42565;53.342;-1.534;2022-07-24T02:00:28;11;8;
56688;PMS5003;42565;53.342;-1.534;2022-07-24T02:02:56;9;9;
56688;PMS5003;42565;53.342;-1.534;2022-07-24T02:05:24;9;9;
56688;PMS5003;42565;53.342;-1.534;2022-07-24T02:07:54;10;8;
56688;PMS5003;42565;53.342;-1.534;2022-07-24T02:10:22;9;8;
56688;PMS5003;42565;53.342;-1.534;2022-07-24T02:12:50;9;9;
56688;PMS5003;42565;53.342;-1.534;2022-07-24T02:15:16;9;9;
56688;PMS5003;42565;53.342;-1.534;2022-07-24T02:17:46;8;8;
56688;PMS5003;42565;53.342;-1.534;2022-07-24T02:20:14;9;9;
56688;PMS5003;42565;53.342;-1.534;2022-07-24T02:22:41;8;8;
56688;PMS5003;42565;53.342;-1.534;2022-07-24T02:25:09;8;8;
56688;PMS5003;42565;53.342;-1.534;2022-07-24T02:29:17;9;9;
56688;PMS5003;42565;53.342;-1.534;2022-07-24T02:31:44;7;7;
56688;PMS5003;42565;53.342;-1.534;2022-07-24T02:34:12;7;7;
56688;PMS5003;42565;53.342;-1.534;2022-07-24T02:36:40;9;9;
56688;PMS5003;42565;53.342;-1.534;2022-07-24T02:39:07;7;7;
56688;PMS5003;42565;53.342;-1.534;2022-07-24T02:41:33;9;9;
56688;PMS5003;42565;53.342;-1.534;2022-07-24T02:44:01;8;8;
56688;PMS5003;42565;53.342;-1.534;2022-07-24T02:46:29;8;8;
56688;PMS5003;42565;53.342;-1.534;2022-07-24T02:48:56;9;9;
56688;PMS5003;42565;53.342;-1.534;2022-07-24T02:51:24;9;8;
56688;PMS5003;42565;53.342;-1.534;2022-07-24T02:53:50;7;7;
56688;PMS5003;42565;53.342;-1.534;2022-07-24T02:56:18;8;8;
56688;PMS5003;42565;53.342;-1.534;2022-07-24T02:58:45;6;6;
56688;PMS5003;42565;53.342;-1.534;2022-07-24T03:01:11;10;8;
56688;PMS5003;42565;53.342;-1.534;2022-07-24T03:03:38;9;9;
56688;PMS5003;42565;53.342;-1.534;2022-07-24T03:06:05;5;5;
56688;PMS5003;42565;53.342;-1.534;2022-07-24T03:08:32;7;7;
56688;PMS5003;42565;53.342;-1.534;2022-07-24T03:10:59;6;6;
56688;PMS5003;42565;53.342;-1.534;2022-07-24T03:13:27;6;6;
56688;PMS5003;42565;53.342;-1.534;2022-07-24T03:15:54;7;7;
56688;PMS5003;42565;53.342;-1.534;2022-07-24T03:18:22;6;6;
56688;PMS5003;42565;53.342;-1.534;2022-07-24T03:20:48;5;5;
56688;PMS5003;42565;53.342;-1.534;2022-07-24T03:23:16;5;5;
56688;PMS5003;42565;53.342;-1.534;2022-07-24T03:25:43;6;6;
56688;PMS5003;42565;53.342;-1.534;2022-07-24T03:28:10;6;6;
56688;PMS5003;42565;53.342;-1.534;2022-07-24T03:30:37;6;6;
56688;PMS5003;42565;53.342;-1.534;2022-07-24T03:33:04;5;5;
56688;PMS5003;42565;53.342;-1.534;2022-07-24T03:35:31;6;6;
56688;PMS5003;42565;53.342;-1.534;2022-07-24T03:37:58;5;5;
56688;PMS5003;42565;53.342;-1.534;2022-07-24T03:40:25;3;3;
56688;PMS5003;42565;53.342;-1.534;2022-07-24T03:42:53;6;6;
56688;PMS5003;42565;53.342;-1.534;2022-07-24T03:45:19;4;4;
56688;PMS5003;42565;53.342;-1.534;2022-07-24T03:47:47;4;4;
56688;PMS5003;42565;53.342;-1.534;2022-07-24T03:50:14;4;4;
56688;PMS5003;42565;53.342;-1.534;2022-07-24T03:52:41;4;3;
56688;PMS5003;42565;53.342;-1.534;2022-07-24T03:55:08;5;5;
56688;PMS5003;42565;53.342;-1.534;2022-07-24T03:57:35;3;3;
56688;PMS5003;42565;53.342;-1.534;2022-07-24T04:00:03;4;4;
56688;PMS5003;42565;53.342;-1.534;2022-07-24T04:02:30;3;2;
56688;PMS5003;42565;53.342;-1.534;2022-07-24T04:04:57;5;4;
56688;PMS5003;42565;53.342;-1.534;2022-07-24T04:07:25;3;3;
56688;PMS5003;42565;53.342;-1.534;2022-07-24T04:09:52;5;4;
56688;PMS5003;42565;53.342;-1.534;2022-07-24T04:12:20;6;5;
56688;PMS5003;42565;53.342;-1.534;2022-07-24T04:14:46;4;4;
56688;PMS5003;42565;53.342;-1.534;2022-07-24T04:17:14;4;4;
56688;PMS5003;42565;53.342;-1.534;2022-07-24T04:19:41;3;3;
56688;PMS5003;42565;53.342;-1.534;2022-07-24T04:22:09;5;4;
56688;PMS5003;42565;53.342;-1.534;2022-07-24T04:24:37;4;4;
56688;PMS5003;42565;53.342;-1.534;2022-07-24T04:27:44;3;3;
56688;PMS5003;42565;53.342;-1.534;2022-07-24T04:30:12;4;4;
56688;PMS5003;42565;53.342;-1.534;2022-07-24T04:32:40;4;4;
56688;PMS5003;42565;53.342;-1.534;2022-07-24T04:35:07;3;3;
56688;PMS5003;42565;53.342;-1.534;2022-07-24T04:37:35;4;4;
56688;PMS5003;42565;53.342;-1.534;2022-07-24T04:40:02;4;4;
56688;PMS5003;42565;53.342;-1.534;2022-07-24T04:42:29;4;4;
56688;PMS5003;42565;53.342;-1.534;2022-07-24T04:44:56;3;3;
56688;PMS5003;42565;53.342;-1.534;2022-07-24T04:47:24;3;3;
56688;PMS5003;42565;53.342;-1.534;2022-07-24T04:49:52;4;4;
56688;PMS5003;42565;53.342;-1.534;2022-07-24T04:52:18;2;2;
56688;PMS5003;42565;53.342;-1.534;2022-07-24T04:54:45;3;3;
56688;PMS5003;42565;53.342;-1.534;2022-07-24T04:57:12;2;2;
56688;PMS5003;42565;53.342;-1.534;2022-07-24T04:59:39;3;2;
56688;PMS5003;42565;53.342;-1.534;2022-07-24T05:02:07;3;2;
56688;PMS5003;42565;53.342;-1.534;2022-07-24T05:04:34;2;1;
56688;PMS5003;42565;53.342;-1.534;2022-07-24T05:07:02;3;2;
56688;PMS5003;42565;53.342;-1.534;2022-07-24T05:09:29;2;2;
56688;PMS5003;42565;53.342;-1.534;2022-07-24T05:11:57;1;1;
56688;PMS5003;42565;53.342;-1.534;2022-07-24T05:14:24;0;0;
56688;PMS5003;42565;53.342;-1.534;2022-07-24T05:16:51;1;1;
56688;PMS5003;42565;53.342;-1.534;2022-07-24T05:19:19;2;1;
56688;PMS5003;42565;53.342;-1.534;2022-07-24T05:21:45;2;2;
56688;PMS5003;42565;53.342;-1.534;2022-07-24T05:24:12;2;2;
56688;PMS5003;42565;53.342;-1.534;2022-07-24T05:26:39;2;2;
56688;PMS5003;42565;53.342;-1.534;2022-07-24T05:29:12;3;3;
56688;PMS5003;42565;53.342;-1.534;2022-07-24T05:32:19;2;2;
56688;PMS5003;42565;53.342;-1.534;2022-07-24T05:34:46;1;1;
56688;PMS5003;42565;53.342;-1.534;2022-07-24T05:37:14;1;1;
56688;PMS5003;42565;53.342;-1.534;2022-07-24T05:39:41;3;3;
56688;PMS5003;42565;53.342;-1.534;2022-07-24T05:42:09;2;2;
56688;PMS5003;42565;53.342;-1.534;2022-07-24T05:44:36;4;3;
56688;PMS5003;42565;53.342;-1.534;2022-07-24T05:47:04;2;2;
56688;PMS5003;42565;53.342;-1.534;2022-07-24T05:49:31;2;2;
56688;PMS5003;42565;53.342;-1.534;2022-07-24T05:51:58;2;2;
56688;PMS5003;42565;53.342;-1.534;2022-07-24T05:54:25;2;2;
56688;PMS5003;42565;53.342;-1.534;2022-07-24T05:56:53;2;2;
56688;PMS5003;42565;53.342;-1.534;2022-07-24T05:59:20;3;3;
56688;PMS5003;42565;53.342;-1.534;2022-07-24T06:01:48;2;2;
56688;PMS5003;42565;53.342;-1.534;2022-07-24T06:04:15;2;2;
56688;PMS5003;42565;53.342;-1.534;2022-07-24T06:06:41;2;2;
56688;PMS5003;42565;53.342;-1.534;2022-07-24T06:09:08;2;2;
56688;PMS5003;42565;53.342;-1.534;2022-07-24T06:11:35;3;3;
56688;PMS5003;42565;53.342;-1.534;2022-07-24T06:14:01;2;2;
56688;PMS5003;42565;53.342;-1.534;2022-07-24T06:16:28;1;1;
56688;PMS5003;42565;53.342;-1.534;2022-07-24T06:18:56;0;0;
56688;PMS5003;42565;53.342;-1.534;2022-07-24T06:21:23;2;2;
56688;PMS5003;42565;53.342;-1.534;2022-07-24T06:23:50;1;1;
56688;PMS5003;42565;53.342;-1.534;2022-07-24T06:26:16;3;2;
56688;PMS5003;42565;53.342;-1.534;2022-07-24T06:29:03;2;2;
56688;PMS5003;42565;53.342;-1.534;2022-07-24T06:31:35;0;0;
56688;PMS5003;42565;53.342;-1.534;2022-07-24T06:34:35;1;1;
56688;PMS5003;42565;53.342;-1.534;2022-07-24T06:37:02;2;2;
56688;PMS5003;42565;53.342;-1.534;2022-07-24T06:39:29;0;0;
56688;PMS5003;42565;53.342;-1.534;2022-07-24T06:41:57;1;1;
56688;PMS5003;42565;53.342;-1.534;2022-07-24T06:44:24;1;1;
56688;PMS5003;42565;53.342;-1.534;2022-07-24T06:46:52;1;1;
56688;PMS5003;42565;53.342;-1.534;2022-07-24T06:49:18;1;1;
56688;PMS5003;42565;53.342;-1.534;2022-07-24T06:51:46;1;1;
56688;PMS5003;42565;53.342;-1.534;2022-07-24T06:54:13;2;2;
56688;PMS5003;42565;53.342;-1.534;2022-07-24T06:56:40;2;2;
56688;PMS5003;42565;53.342;-1.534;2022-07-24T06:59:08;2;2;
56688;PMS5003;42565;53.342;-1.534;2022-07-24T07:01:35;1;1;
56688;PMS5003;42565;53.342;-1.534;2022-07-24T07:04:02;3;2;
56688;PMS5003;42565;53.342;-1.534;2022-07-24T07:06:29;2;2;
56688;PMS5003;42565;53.342;-1.534;2022-07-24T07:08:56;1;1;
56688;PMS5003;42565;53.342;-1.534;2022-07-24T07:11:24;2;2;
56688;PMS5003;42565;53.342;-1.534;2022-07-24T07:13:51;2;2;
56688;PMS5003;42565;53.342;-1.534;2022-07-24T07:16:18;2;1;
56688;PMS5003;42565;53.342;-1.534;2022-07-24T07:18:45;2;2;
56688;PMS5003;42565;53.342;-1.534;2022-07-24T07:21:13;2;1;
56688;PMS5003;42565;53.342;-1.534;2022-07-24T07:23:40;0;0;
56688;PMS5003;42565;53.342;-1.534;2022-07-24T07:26:07;2;2;
56688;PMS5003;42565;53.342;-1.534;2022-07-24T07:29:43;1;1;
56688;PMS5003;42565;53.342;-1.534;2022-07-24T07:32:11;2;2;
56688;PMS5003;42565;53.342;-1.534;2022-07-24T07:34:38;1;1;
56688;PMS5003;42565;53.342;-1.534;2022-07-24T07:37:06;2;2;
56688;PMS5003;42565;53.342;-1.534;2022-07-24T07:39:34;2;2;
56688;PMS5003;42565;53.342;-1.534;2022-07-24T07:42:01;2;2;
56688;PMS5003;42565;53.342;-1.534;2022-07-24T07:44:29;2;2;
56688;PMS5003;42565;53.342;-1.534;2022-07-24T07:46:56;2;2;
56688;PMS5003;42565;53.342;-1.534;2022-07-24T07:49:24;1;1;
56688;PMS5003;42565;53.342;-1.534;2022-07-24T07:51:51;2;2;
56688;PMS5003;42565;53.342;-1.534;2022-07-24T07:54:19;2;2;
56688;PMS5003;42565;53.342;-1.534;2022-07-24T07:56:46;2;2;
56688;PMS5003;42565;53.342;-1.534;2022-07-24T07:59:14;2;2;
56688;PMS5003;42565;53.342;-1.534;2022-07-24T08:01:41;2;2;
56688;PMS5003;42565;53.342;-1.534;2022-07-24T08:04:09;2;2;
56688;PMS5003;42565;53.342;-1.534;2022-07-24T08:06:36;0;0;
56688;PMS5003;42565;53.342;-1.534;2022-07-24T08:09:04;1;1;
56688;PMS5003;42565;53.342;-1.534;2022-07-24T08:11:31;2;2;
56688;PMS5003;42565;53.342;-1.534;2022-07-24T08:13:59;2;2;
56688;PMS5003;42565;53.342;-1.534;2022-07-24T08:16:26;2;2;
56688;PMS5003;42565;53.342;-1.534;2022-07-24T08:18:54;3;2;
56688;PMS5003;42565;53.342;-1.534;2022-07-24T08:21:21;1;1;
56688;PMS5003;42565;53.342;-1.534;2022-07-24T08:23:49;1;1;
56688;PMS5003;42565;53.342;-1.534;2022-07-24T08:26:16;1;1;
56688;PMS5003;42565;53.342;-1.534;2022-07-24T08:28:44;1;1;
56688;PMS5003;42565;53.342;-1.534;2022-07-24T08:31:11;1;1;
56688;PMS5003;42565;53.342;-1.534;2022-07-24T08:33:39;2;2;
56688;PMS5003;42565;53.342;-1.534;2022-07-24T08:36:07;1;1;
56688;PMS5003;42565;53.342;-1.534;2022-07-24T08:38:34;0;0;
56688;PMS5003;42565;53.342;-1.534;2022-07-24T08:41:00;2;2;
56688;PMS5003;42565;53.342;-1.534;2022-07-24T08:43:28;1;1;
56688;PMS5003;42565;53.342;-1.534;2022-07-24T08:45:55;2;2;
56688;PMS5003;42565;53.342;-1.534;2022-07-24T08:48:26;2;2;
56688;PMS5003;42565;53.342;-1.534;2022-07-24T08:50:53;1;1;
56688;PMS5003;42565;53.342;-1.534;2022-07-24T08:53:22;2;2;
56688;PMS5003;42565;53.342;-1.534;2022-07-24T08:55:49;0;0;
56688;PMS5003;42565;53.342;-1.534;2022-07-24T08:58:16;3;3;
56688;PMS5003;42565;53.342;-1.534;2022-07-24T09:00:44;2;2;
56688;PMS5003;42565;53.342;-1.534;2022-07-24T09:03:11;3;3;
56688;PMS5003;42565;53.342;-1.534;2022-07-24T09:05:55;3;3;
56688;PMS5003;42565;53.342;-1.534;2022-07-24T09:08:24;3;3;
56688;PMS5003;42565;53.342;-1.534;2022-07-24T09:10:53;2;2;
56688;PMS5003;42565;53.342;-1.534;2022-07-24T09:13:24;2;2;
56688;PMS5003;42565;53.342;-1.534;2022-07-24T09:15:52;3;3;
56688;PMS5003;42565;53.342;-1.534;2022-07-24T09:18:27;3;3;
56688;PMS5003;42565;53.342;-1.534;2022-07-24T09:20:56;2;2;
56688;PMS5003;42565;53.342;-1.534;2022-07-24T09:23:24;1;1;
56688;PMS5003;42565;53.342;-1.534;2022-07-24T09:25:51;3;3;
56688;PMS5003;42565;53.342;-1.534;2022-07-24T09:28:20;3;2;
56688;PMS5003;42565;53.342;-1.534;2022-07-24T09:30:47;2;2;
56688;PMS5003;42565;53.342;-1.534;2022-07-24T09:33:15;3;3;
56688;PMS5003;42565;53.342;-1.534;2022-07-24T09:35:44;2;2;
56688;PMS5003;42565;53.342;-1.534;2022-07-24T09:38:13;2;2;
56688;PMS5003;42565;53.342;-1.534;2022-07-24T09:40:43;2;2;
56688;PMS5003;42565;53.342;-1.534;2022-07-24T09:43:13;2;2;
56688;PMS5003;42565;53.342;-1.534;2022-07-24T09:45:58;2;2;
56688;PMS5003;42565;53.342;-1.534;2022-07-24T09:48:27;0;0;
56688;PMS5003;42565;53.342;-1.534;2022-07-24T09:50:57;2;2;
56688;PMS5003;42565;53.342;-1.534;2022-07-24T09:53:27;2;2;
56688;PMS5003;42565;53.342;-1.534;2022-07-24T09:55:57;2;2;
56688;PMS5003;42565;53.342;-1.534;2022-07-24T09:58:47;2;2;
56688;PMS5003;42565;53.342;-1.534;2022-07-24T10:01:15;2;2;
56688;PMS5003;42565;53.342;-1.534;2022-07-24T10:03:50;1;1;
56688;PMS5003;42565;53.342;-1.534;2022-07-24T10:06:18;2;2;
56688;PMS5003;42565;53.342;-1.534;2022-07-24T10:09:00;2;2;
56688;PMS5003;42565;53.342;-1.534;2022-07-24T10:11:28;2;2;
56688;PMS5003;42565;53.342;-1.534;2022-07-24T10:14:00;3;3;
56688;PMS5003;42565;53.342;-1.534;2022-07-24T10:16:38;3;3;
56688;PMS5003;42565;53.342;-1.534;2022-07-24T10:19:09;2;2;
56688;PMS5003;42565;53.342;-1.534;2022-07-24T10:21:40;1;1;
56688;PMS5003;42565;53.342;-1.534;2022-07-24T10:24:28;3;3;
56688;PMS5003;42565;53.342;-1.534;2022-07-24T10:27:20;1;1;
56688;PMS5003;42565;53.342;-1.534;2022-07-24T10:29:51;0;0;
56688;PMS5003;42565;53.342;-1.534;2022-07-24T10:32:20;3;3;
56688;PMS5003;42565;53.342;-1.534;2022-07-24T10:34:50;2;2;
56688;PMS5003;42565;53.342;-1.534;2022-07-24T10:37:25;2;2;
56688;PMS5003;42565;53.342;-1.534;2022-07-24T10:40:02;2;2;
56688;PMS5003;42565;53.342;-1.534;2022-07-24T10:42:51;2;2;
56688;PMS5003;42565;53.342;-1.534;2022-07-24T10:45:35;3;2;
56688;PMS5003;42565;53.342;-1.534;2022-07-24T10:48:24;2;2;
56688;PMS5003;42565;53.342;-1.534;2022-07-24T10:51:04;1;1;
56688;PMS5003;42565;53.342;-1.534;2022-07-24T10:53:50;3;2;
56688;PMS5003;42565;53.342;-1.534;2022-07-24T10:56:21;1;1;
56688;PMS5003;42565;53.342;-1.534;2022-07-24T10:58:51;2;2;
56688;PMS5003;42565;53.342;-1.534;2022-07-24T11:01:38;3;3;
56688;PMS5003;42565;53.342;-1.534;2022-07-24T11:04:25;3;3;
56688;PMS5003;42565;53.342;-1.534;2022-07-24T11:06:55;3;3;
56688;PMS5003;42565;53.342;-1.534;2022-07-24T11:09:23;3;3;
56688;PMS5003;42565;53.342;-1.534;2022-07-24T11:12:07;4;4;
56688;PMS5003;42565;53.342;-1.534;2022-07-24T11:14:50;2;2;
56688;PMS5003;42565;53.342;-1.534;2022-07-24T11:17:43;2;1;
56688;PMS5003;42565;53.342;-1.534;2022-07-24T11:20:12;2;2;
56688;PMS5003;42565;53.342;-1.534;2022-07-24T11:22:40;4;4;
56688;PMS5003;42565;53.342;-1.534;2022-07-24T11:25:13;2;2;
56688;PMS5003;42565;53.342;-1.534;2022-07-24T11:27:42;3;3;
56688;PMS5003;42565;53.342;-1.534;2022-07-24T11:30:22;2;2;
56688;PMS5003;42565;53.342;-1.534;2022-07-24T11:32:50;2;2;
56688;PMS5003;42565;53.342;-1.534;2022-07-24T11:35:29;3;3;
56688;PMS5003;42565;53.342;-1.534;2022-07-24T11:38:07;4;4;
56688;PMS5003;42565;53.342;-1.534;2022-07-24T11:40:35;4;4;
56688;PMS5003;42565;53.342;-1.534;2022-07-24T11:43:03;3;3;
56688;PMS5003;42565;53.342;-1.534;2022-07-24T11:45:31;2;2;
56688;PMS5003;42565;53.342;-1.534;2022-07-24T11:47:59;4;4;
56688;PMS5003;42565;53.342;-1.534;2022-07-24T11:50:26;4;4;
56688;PMS5003;42565;53.342;-1.534;2022-07-24T11:52:54;4;3;
56688;PMS5003;42565;53.342;-1.534;2022-07-24T11:55:23;2;2;
56688;PMS5003;42565;53.342;-1.534;2022-07-24T11:57:51;4;3;
56688;PMS5003;42565;53.342;-1.534;2022-07-24T12:00:21;4;3;
56688;PMS5003;42565;53.342;-1.534;2022-07-24T12:02:50;3;3;
56688;PMS5003;42565;53.342;-1.534;2022-07-24T12:05:23;4;4;
56688;PMS5003;42565;53.342;-1.534;2022-07-24T12:07:52;4;4;
56688;PMS5003;42565;53.342;-1.534;2022-07-24T12:10:19;4;4;
56688;PMS5003;42565;53.342;-1.534;2022-07-24T12:12:47;3;3;
56688;PMS5003;42565;53.342;-1.534;2022-07-24T12:15:15;3;3;
56688;PMS5003;42565;53.342;-1.534;2022-07-24T12:17:59;3;3;
56688;PMS5003;42565;53.342;-1.534;2022-07-24T12:20:28;4;4;
56688;PMS5003;42565;53.342;-1.534;2022-07-24T12:22:57;5;5;
56688;PMS5003;42565;53.342;-1.534;2022-07-24T12:25:26;5;4;
56688;PMS5003;42565;53.342;-1.534;2022-07-24T12:28:03;3;3;
56688;PMS5003;42565;53.342;-1.534;2022-07-24T12:30:33;4;3;
56688;PMS5003;42565;53.342;-1.534;2022-07-24T12:33:02;4;3;
56688;PMS5003;42565;53.342;-1.534;2022-07-24T12:35:31;3;3;
56688;PMS5003;42565;53.342;-1.534;2022-07-24T12:38:01;3;3;
56688;PMS5003;42565;53.342;-1.534;2022-07-24T12:40:30;3;3;
56688;PMS5003;42565;53.342;-1.534;2022-07-24T12:43:00;2;2;
56688;PMS5003;42565;53.342;-1.534;2022-07-24T12:45:30;2;2;
56688;PMS5003;42565;53.342;-1.534;2022-07-24T12:48:30;4;4;
56688;PMS5003;42565;53.342;-1.534;2022-07-24T12:50:58;3;3;
56688;PMS5003;42565;53.342;-1.534;2022-07-24T12:53:27;1;1;
56688;PMS5003;42565;53.342;-1.534;2022-07-24T12:56:06;2;2;
56688;PMS5003;42565;53.342;-1.534;2022-07-24T12:59:09;1;1;
56688;PMS5003;42565;53.342;-1.534;2022-07-24T13:01:49;3;3;
56688;PMS5003;42565;53.342;-1.534;2022-07-24T13:04:18;3;3;
56688;PMS5003;42565;53.342;-1.534;2022-07-24T13:06:47;3;3;
56688;PMS5003;42565;53.342;-1.534;2022-07-24T13:09:16;2;2;
56688;PMS5003;42565;53.342;-1.534;2022-07-24T13:11:45;3;3;
56688;PMS5003;42565;53.342;-1.534;2022-07-24T13:14:13;3;3;
56688;PMS5003;42565;53.342;-1.534;2022-07-24T13:16:42;3;3;
56688;PMS5003;42565;53.342;-1.534;2022-07-24T13:19:11;4;4;
56688;PMS5003;42565;53.342;-1.534;2022-07-24T13:21:44;3;3;
56688;PMS5003;42565;53.342;-1.534;2022-07-24T13:24:13;4;3;
56688;PMS5003;42565;53.342;-1.534;2022-07-24T13:26:46;3;3;
56688;PMS5003;42565;53.342;-1.534;2022-07-24T13:29:14;3;3;
56688;PMS5003;42565;53.342;-1.534;2022-07-24T13:31:41;3;3;
56688;PMS5003;42565;53.342;-1.534;2022-07-24T13:34:09;3;3;
56688;PMS5003;42565;53.342;-1.534;2022-07-24T13:36:37;2;2;
56688;PMS5003;42565;53.342;-1.534;2022-07-24T13:39:04;4;4;
56688;PMS5003;42565;53.342;-1.534;2022-07-24T13:41:32;4;4;
56688;PMS5003;42565;53.342;-1.534;2022-07-24T13:44:11;4;4;
56688;PMS5003;42565;53.342;-1.534;2022-07-24T13:46:39;4;4;
56688;PMS5003;42565;53.342;-1.534;2022-07-24T13:49:06;4;4;
56688;PMS5003;42565;53.342;-1.534;2022-07-24T13:51:34;4;4;
56688;PMS5003;42565;53.342;-1.534;2022-07-24T13:54:01;3;3;
56688;PMS5003;42565;53.342;-1.534;2022-07-24T13:56:29;5;5;
56688;PMS5003;42565;53.342;-1.534;2022-07-24T13:59:06;4;4;
56688;PMS5003;42565;53.342;-1.534;2022-07-24T14:01:33;3;3;
56688;PMS5003;42565;53.342;-1.534;2022-07-24T14:04:02;6;6;
56688;PMS5003;42565;53.342;-1.534;2022-07-24T14:06:32;5;5;
56688;PMS5003;42565;53.342;-1.534;2022-07-24T14:09:00;5;4;
56688;PMS5003;42565;53.342;-1.534;2022-07-24T14:11:27;4;4;
56688;PMS5003;42565;53.342;-1.534;2022-07-24T14:13:54;5;5;
56688;PMS5003;42565;53.342;-1.534;2022-07-24T14:16:22;4;4;
56688;PMS5003;42565;53.342;-1.534;2022-07-24T14:18:49;3;3;
56688;PMS5003;42565;53.342;-1.534;2022-07-24T14:21:17;4;4;
56688;PMS5003;42565;53.342;-1.534;2022-07-24T14:23:44;3;3;
56688;PMS5003;42565;53.342;-1.534;2022-07-24T14:26:12;4;4;
56688;PMS5003;42565;53.342;-1.534;2022-07-24T14:28:39;4;4;
56688;PMS5003;42565;53.342;-1.534;2022-07-24T14:31:07;4;4;
56688;PMS5003;42565;53.342;-1.534;2022-07-24T14:33:34;2;2;
56688;PMS5003;42565;53.342;-1.534;2022-07-24T14:36:02;5;4;
56688;PMS5003;42565;53.342;-1.534;2022-07-24T14:38:29;3;3;
56688;PMS5003;42565;53.342;-1.534;2022-07-24T14:40:57;2;2;
56688;PMS5003;42565;53.342;-1.534;2022-07-24T14:43:24;3;3;
56688;PMS5003;42565;53.342;-1.534;2022-07-24T14:45:52;4;4;
56688;PMS5003;42565;53.342;-1.534;2022-07-24T14:48:26;3;3;
56688;PMS5003;42565;53.342;-1.534;2022-07-24T14:51:02;4;4;
56688;PMS5003;42565;53.342;-1.534;2022-07-24T14:53:29;4;4;
56688;PMS5003;42565;53.342;-1.534;2022-07-24T14:55:57;4;4;
56688;PMS5003;42565;53.342;-1.534;2022-07-24T14:58:25;5;4;
56688;PMS5003;42565;53.342;-1.534;2022-07-24T15:00:52;5;5;
56688;PMS5003;42565;53.342;-1.534;2022-07-24T15:03:25;6;5;
56688;PMS5003;42565;53.342;-1.534;2022-07-24T15:05:57;5;5;
56688;PMS5003;42565;53.342;-1.534;2022-07-24T15:08:24;4;4;
56688;PMS5003;42565;53.342;-1.534;2022-07-24T15:10:52;5;4;
56688;PMS5003;42565;53.342;-1.534;2022-07-24T15:13:20;5;5;
56688;PMS5003;42565;53.342;-1.534;2022-07-24T15:15:47;4;4;
56688;PMS5003;42565;53.342;-1.534;2022-07-24T15:18:14;5;5;
56688;PMS5003;42565;53.342;-1.534;2022-07-24T15:20:47;3;3;
56688;PMS5003;42565;53.342;-1.534;2022-07-24T15:23:24;4;4;
56688;PMS5003;42565;53.342;-1.534;2022-07-24T15:25:51;2;2;
56688;PMS5003;42565;53.342;-1.534;2022-07-24T15:28:18;3;3;
56688;PMS5003;42565;53.342;-1.534;2022-07-24T15:30:46;2;2;
56688;PMS5003;42565;53.342;-1.534;2022-07-24T15:33:14;3;3;
56688;PMS5003;42565;53.342;-1.534;2022-07-24T15:35:41;3;3;
56688;PMS5003;42565;53.342;-1.534;2022-07-24T15:38:08;3;2;
56688;PMS5003;42565;53.342;-1.534;2022-07-24T15:40:36;2;2;
56688;PMS5003;42565;53.342;-1.534;2022-07-24T15:43:03;3;3;
56688;PMS5003;42565;53.342;-1.534;2022-07-24T15:45:31;3;3;
56688;PMS5003;42565;53.342;-1.534;2022-07-24T15:47:58;3;3;
56688;PMS5003;42565;53.342;-1.534;2022-07-24T15:50:26;3;2;
56688;PMS5003;42565;53.342;-1.534;2022-07-24T15:53:13;3;2;
56688;PMS5003;42565;53.342;-1.534;2022-07-24T15:55:46;2;1;
56688;PMS5003;42565;53.342;-1.534;2022-07-24T15:58:28;2;2;
56688;PMS5003;42565;53.342;-1.534;2022-07-24T16:00:55;2;2;
56688;PMS5003;42565;53.342;-1.534;2022-07-24T16:03:22;2;2;
56688;PMS5003;42565;53.342;-1.534;2022-07-24T16:06:00;2;2;
56688;PMS5003;42565;53.342;-1.534;2022-07-24T16:08:27;2;2;
56688;PMS5003;42565;53.342;-1.534;2022-07-24T16:10:54;3;3;
56688;PMS5003;42565;53.342;-1.534;2022-07-24T16:13:22;3;3;
56688;PMS5003;42565;53.342;-1.534;2022-07-24T16:15:49;4;4;
56688;PMS5003;42565;53.342;-1.534;2022-07-24T16:18:17;5;5;
56688;PMS5003;42565;53.342;-1.534;2022-07-24T16:20:44;4;4;
56688;PMS5003;42565;53.342;-1.534;2022-07-24T16:23:12;4;4;
56688;PMS5003;42565;53.342;-1.534;2022-07-24T16:25:39;5;5;
56688;PMS5003;42565;53.342;-1.534;2022-07-24T16:28:07;6;6;
56688;PMS5003;42565;53.342;-1.534;2022-07-24T16:30:36;7;7;
56688;PMS5003;42565;53.342;-1.534;2022-07-24T16:33:04;6;6;
56688;PMS5003;42565;53.342;-1.534;2022-07-24T16:35:31;7;7;
56688;PMS5003;42565;53.342;-1.534;2022-07-24T16:37:58;5;5;
56688;PMS5003;42565;53.342;-1.534;2022-07-24T16:40:25;5;5;
56688;PMS5003;42565;53.342;-1.534;2022-07-24T16:42:53;9;8;
56688;PMS5003;42565;53.342;-1.534;2022-07-24T16:45:20;8;7;
56688;PMS5003;42565;53.342;-1.534;2022-07-24T16:47:48;7;7;
56688;PMS5003;42565;53.342;-1.534;2022-07-24T16:50:15;8;8;
56688;PMS5003;42565;53.342;-1.534;2022-07-24T16:52:43;7;6;